sensor_id;sensor_type;location;lat;lon;timestamp;temperature;humidity
44823;DHT22;51097;51.984;5.650;2022-12-18T00:01:33;0.20;99.90
44823;DHT22;51097;51.984;5.650;2022-12-18T00:04:01;0.20;99.90
44823;DHT22;51097;51.984;5.650;2022-12-18T00:06:28;0.20;99.90
44823;DHT22;51097;51.984;5.650;2022-12-18T00:08:55;0.10;99.90
44823;DHT22;51097;51.984;5.650;2022-12-18T00:11:23;0.10;99.90
44823;DHT22;51097;51.984;5.650;2022-12-18T00:13:50;0.10;99.90
44823;DHT22;51097;51.984;5.650;2022-12-18T00:16:18;0.00;99.90
44823;DHT22;51097;51.984;5.650;2022-12-18T00:18:47;0.00;99.90
44823;DHT22;51097;51.984;5.650;2022-12-18T00:21:13;0.00;99.90
44823;DHT22;51097;51.984;5.650;2022-12-18T00:23:41;0.00;99.90
44823;DHT22;51097;51.984;5.650;2022-12-18T00:26:15;0.00;99.90
44823;DHT22;51097;51.984;5.650;2022-12-18T00:28:42;-0.10;99.90
44823;DHT22;51097;51.984;5.650;2022-12-18T00:31:10;-0.10;99.90
44823;DHT22;51097;51.984;5.650;2022-12-18T00:33:36;-0.10;99.90
44823;DHT22;51097;51.984;5.650;2022-12-18T00:36:04;-0.10;99.90
44823;DHT22;51097;51.984;5.650;2022-12-18T00:38:30;-0.20;99.90
44823;DHT22;51097;51.984;5.650;2022-12-18T00:40:55;-0.20;99.90
44823;DHT22;51097;51.984;5.650;2022-12-18T00:43:21;-0.30;99.90
44823;DHT22;51097;51.984;5.650;2022-12-18T00:45:46;-0.20;99.90
44823;DHT22;51097;51.984;5.650;2022-12-18T00:48:12;-0.20;99.90
44823;DHT22;51097;51.984;5.650;2022-12-18T00:50:37;-0.20;99.90
44823;DHT22;51097;51.984;5.650;2022-12-18T00:53:03;-0.40;99.90
44823;DHT22;51097;51.984;5.650;2022-12-18T00:55:29;-0.30;99.90
44823;DHT22;51097;51.984;5.650;2022-12-18T00:57:54;-0.40;99.90
44823;DHT22;51097;51.984;5.650;2022-12-18T01:00:20;-0.30;99.90
44823;DHT22;51097;51.984;5.650;2022-12-18T01:02:46;-0.40;99.90
44823;DHT22;51097;51.984;5.650;2022-12-18T01:05:12;-0.40;99.90
44823;DHT22;51097;51.984;5.650;2022-12-18T01:07:38;-0.50;99.90
44823;DHT22;51097;51.984;5.650;2022-12-18T01:10:05;-0.70;99.90
44823;DHT22;51097;51.984;5.650;2022-12-18T01:12:32;-0.60;99.90
44823;DHT22;51097;51.984;5.650;2022-12-18T01:14:58;-0.70;99.90
44823;DHT22;51097;51.984;5.650;2022-12-18T01:17:23;-0.60;99.90
44823;DHT22;51097;51.984;5.650;2022-12-18T01:19:49;-0.60;99.90
44823;DHT22;51097;51.984;5.650;2022-12-18T01:22:14;-0.70;99.90
44823;DHT22;51097;51.984;5.650;2022-12-18T01:24:40;-0.70;99.90
44823;DHT22;51097;51.984;5.650;2022-12-18T01:27:06;-0.70;99.90
44823;DHT22;51097;51.984;5.650;2022-12-18T01:29:31;-0.80;99.90
44823;DHT22;51097;51.984;5.650;2022-12-18T01:31:57;-0.70;99.90
44823;DHT22;51097;51.984;5.650;2022-12-18T01:34:23;-0.70;99.90
44823;DHT22;51097;51.984;5.650;2022-12-18T01:36:49;-0.80;99.90
44823;DHT22;51097;51.984;5.650;2022-12-18T01:39:18;-0.80;99.90
44823;DHT22;51097;51.984;5.650;2022-12-18T01:41:44;-0.70;99.90
44823;DHT22;51097;51.984;5.650;2022-12-18T01:47:42;-0.70;99.90
44823;DHT22;51097;51.984;5.650;2022-12-18T01:50:24;-0.70;99.90
44823;DHT22;51097;51.984;5.650;2022-12-18T01:53:00;-0.70;99.90
44823;DHT22;51097;51.984;5.650;2022-12-18T01:55:35;-0.70;99.90
44823;DHT22;51097;51.984;5.650;2022-12-18T01:58:02;-0.70;99.90
44823;DHT22;51097;51.984;5.650;2022-12-18T02:00:29;-0.80;99.90
44823;DHT22;51097;51.984;5.650;2022-12-18T02:02:55;-0.80;99.90
44823;DHT22;51097;51.984;5.650;2022-12-18T02:05:45;-0.70;99.90
44823;DHT22;51097;51.984;5.650;2022-12-18T02:11:06;-0.80;99.90
44823;DHT22;51097;51.984;5.650;2022-12-18T02:19:21;-0.70;99.90
44823;DHT22;51097;51.984;5.650;2022-12-18T02:22:13;-0.80;99.90
44823;DHT22;51097;51.984;5.650;2022-12-18T02:27:14;-0.90;99.90
44823;DHT22;51097;51.984;5.650;2022-12-18T02:29:44;-0.80;99.90
44823;DHT22;51097;51.984;5.650;2022-12-18T02:32:16;-0.80;99.90
44823;DHT22;51097;51.984;5.650;2022-12-18T02:34:43;-0.80;99.90
44823;DHT22;51097;51.984;5.650;2022-12-18T02:37:13;-0.80;99.90
44823;DHT22;51097;51.984;5.650;2022-12-18T02:42:22;-0.80;99.90
44823;DHT22;51097;51.984;5.650;2022-12-18T02:44:50;-0.70;99.90
44823;DHT22;51097;51.984;5.650;2022-12-18T02:47:19;-0.90;99.90
44823;DHT22;51097;51.984;5.650;2022-12-18T02:59:19;-1.10;99.90
44823;DHT22;51097;51.984;5.650;2022-12-18T03:01:51;-1.00;99.90
44823;DHT22;51097;51.984;5.650;2022-12-18T03:04:26;-1.00;99.90
44823;DHT22;51097;51.984;5.650;2022-12-18T03:06:55;-1.00;99.90
44823;DHT22;51097;51.984;5.650;2022-12-18T03:09:31;-1.00;99.90
44823;DHT22;51097;51.984;5.650;2022-12-18T03:12:14;-1.10;99.90
44823;DHT22;51097;51.984;5.650;2022-12-18T03:14:50;-0.90;99.90
44823;DHT22;51097;51.984;5.650;2022-12-18T03:17:19;-0.90;99.90
44823;DHT22;51097;51.984;5.650;2022-12-18T03:19:46;-1.10;99.90
44823;DHT22;51097;51.984;5.650;2022-12-18T03:22:13;-1.00;99.90
44823;DHT22;51097;51.984;5.650;2022-12-18T03:24:40;-1.10;99.90
44823;DHT22;51097;51.984;5.650;2022-12-18T03:27:10;-1.10;99.90
44823;DHT22;51097;51.984;5.650;2022-12-18T03:29:51;-1.10;99.90
44823;DHT22;51097;51.984;5.650;2022-12-18T03:32:25;-1.10;99.90
44823;DHT22;51097;51.984;5.650;2022-12-18T03:34:53;-1.00;99.90
44823;DHT22;51097;51.984;5.650;2022-12-18T03:37:22;-1.00;99.90
44823;DHT22;51097;51.984;5.650;2022-12-18T03:39:48;-1.00;99.90
44823;DHT22;51097;51.984;5.650;2022-12-18T03:42:27;-1.10;99.90
44823;DHT22;51097;51.984;5.650;2022-12-18T03:50:27;-1.10;99.90
44823;DHT22;51097;51.984;5.650;2022-12-18T03:55:38;-1.10;99.90
44823;DHT22;51097;51.984;5.650;2022-12-18T03:58:04;-1.10;99.90
44823;DHT22;51097;51.984;5.650;2022-12-18T04:00:31;-1.10;99.90
44823;DHT22;51097;51.984;5.650;2022-12-18T04:02:59;-1.10;99.90
44823;DHT22;51097;51.984;5.650;2022-12-18T04:05:27;-1.00;99.90
44823;DHT22;51097;51.984;5.650;2022-12-18T04:07:54;-0.90;99.90
44823;DHT22;51097;51.984;5.650;2022-12-18T04:10:21;-1.00;99.90
44823;DHT22;51097;51.984;5.650;2022-12-18T04:12:47;-1.10;99.90
44823;DHT22;51097;51.984;5.650;2022-12-18T04:15:13;-1.10;99.90
44823;DHT22;51097;51.984;5.650;2022-12-18T04:17:46;-1.10;99.90
44823;DHT22;51097;51.984;5.650;2022-12-18T04:20:12;-1.10;99.90
44823;DHT22;51097;51.984;5.650;2022-12-18T04:22:38;-1.20;99.90
44823;DHT22;51097;51.984;5.650;2022-12-18T04:25:04;-1.20;99.90
44823;DHT22;51097;51.984;5.650;2022-12-18T04:27:29;-1.20;99.90
44823;DHT22;51097;51.984;5.650;2022-12-18T04:29:55;-1.20;99.90
44823;DHT22;51097;51.984;5.650;2022-12-18T04:32:20;-1.30;99.90
44823;DHT22;51097;51.984;5.650;2022-12-18T04:34:46;-1.30;99.90
44823;DHT22;51097;51.984;5.650;2022-12-18T04:37:11;-1.40;99.90
44823;DHT22;51097;51.984;5.650;2022-12-18T04:39:37;-1.30;99.90
44823;DHT22;51097;51.984;5.650;2022-12-18T04:42:03;-1.30;99.90
44823;DHT22;51097;51.984;5.650;2022-12-18T04:44:28;-1.20;99.90
44823;DHT22;51097;51.984;5.650;2022-12-18T04:46:54;-1.30;99.90
44823;DHT22;51097;51.984;5.650;2022-12-18T04:49:19;-1.30;99.90
44823;DHT22;51097;51.984;5.650;2022-12-18T04:51:45;-1.20;99.90
44823;DHT22;51097;51.984;5.650;2022-12-18T04:54:10;-1.20;99.90
44823;DHT22;51097;51.984;5.650;2022-12-18T04:56:36;-1.10;99.90
44823;DHT22;51097;51.984;5.650;2022-12-18T04:59:01;-1.20;99.90
44823;DHT22;51097;51.984;5.650;2022-12-18T05:01:27;-1.20;99.90
44823;DHT22;51097;51.984;5.650;2022-12-18T05:03:52;-1.20;99.90
44823;DHT22;51097;51.984;5.650;2022-12-18T05:06:18;-1.10;99.90
44823;DHT22;51097;51.984;5.650;2022-12-18T05:08:43;-1.10;99.90
44823;DHT22;51097;51.984;5.650;2022-12-18T05:11:12;-1.20;99.90
44823;DHT22;51097;51.984;5.650;2022-12-18T05:13:40;-1.20;99.90
44823;DHT22;51097;51.984;5.650;2022-12-18T05:16:06;-1.10;99.90
44823;DHT22;51097;51.984;5.650;2022-12-18T05:18:32;-1.20;99.90
44823;DHT22;51097;51.984;5.650;2022-12-18T05:20:58;-1.10;99.90
44823;DHT22;51097;51.984;5.650;2022-12-18T05:23:24;-1.20;99.90
44823;DHT22;51097;51.984;5.650;2022-12-18T05:25:54;-1.20;99.90
44823;DHT22;51097;51.984;5.650;2022-12-18T05:28:20;-1.20;99.90
44823;DHT22;51097;51.984;5.650;2022-12-18T05:30:50;-1.20;99.90
44823;DHT22;51097;51.984;5.650;2022-12-18T05:33:17;-1.20;99.90
44823;DHT22;51097;51.984;5.650;2022-12-18T05:35:43;-1.20;99.90
44823;DHT22;51097;51.984;5.650;2022-12-18T05:38:09;-1.30;99.90
44823;DHT22;51097;51.984;5.650;2022-12-18T05:40:35;-1.30;99.90
44823;DHT22;51097;51.984;5.650;2022-12-18T05:43:04;-1.30;99.90
44823;DHT22;51097;51.984;5.650;2022-12-18T05:45:30;-1.30;99.90
44823;DHT22;51097;51.984;5.650;2022-12-18T05:47:55;-1.40;99.90
44823;DHT22;51097;51.984;5.650;2022-12-18T05:50:21;-1.40;99.90
44823;DHT22;51097;51.984;5.650;2022-12-18T05:52:46;-1.40;99.90
44823;DHT22;51097;51.984;5.650;2022-12-18T05:55:12;-1.40;99.90
44823;DHT22;51097;51.984;5.650;2022-12-18T05:57:37;-1.40;99.90
44823;DHT22;51097;51.984;5.650;2022-12-18T06:00:03;-1.50;99.90
44823;DHT22;51097;51.984;5.650;2022-12-18T06:02:29;-1.40;99.90
44823;DHT22;51097;51.984;5.650;2022-12-18T06:04:55;-1.40;99.90
44823;DHT22;51097;51.984;5.650;2022-12-18T06:07:20;-1.40;99.90
44823;DHT22;51097;51.984;5.650;2022-12-18T06:09:46;-1.40;99.90
44823;DHT22;51097;51.984;5.650;2022-12-18T06:12:11;-1.40;99.90
44823;DHT22;51097;51.984;5.650;2022-12-18T06:14:37;-1.40;99.90
44823;DHT22;51097;51.984;5.650;2022-12-18T06:17:02;-1.40;99.90
44823;DHT22;51097;51.984;5.650;2022-12-18T06:19:28;-1.50;99.90
44823;DHT22;51097;51.984;5.650;2022-12-18T06:21:54;-1.50;99.90
44823;DHT22;51097;51.984;5.650;2022-12-18T06:24:19;-1.50;99.90
44823;DHT22;51097;51.984;5.650;2022-12-18T06:26:45;-1.40;99.90
44823;DHT22;51097;51.984;5.650;2022-12-18T06:29:10;-1.30;99.90
44823;DHT22;51097;51.984;5.650;2022-12-18T06:31:36;-1.30;99.90
44823;DHT22;51097;51.984;5.650;2022-12-18T06:34:03;-1.30;99.90
44823;DHT22;51097;51.984;5.650;2022-12-18T06:36:29;-1.30;99.90
44823;DHT22;51097;51.984;5.650;2022-12-18T06:38:55;-1.30;99.90
44823;DHT22;51097;51.984;5.650;2022-12-18T06:41:21;-1.30;99.90
44823;DHT22;51097;51.984;5.650;2022-12-18T06:43:47;-1.30;99.90
44823;DHT22;51097;51.984;5.650;2022-12-18T06:46:13;-1.30;99.90
44823;DHT22;51097;51.984;5.650;2022-12-18T06:48:39;-1.20;99.90
44823;DHT22;51097;51.984;5.650;2022-12-18T06:51:04;-1.30;99.90
44823;DHT22;51097;51.984;5.650;2022-12-18T06:53:31;-1.20;99.90
44823;DHT22;51097;51.984;5.650;2022-12-18T06:56:05;-1.20;99.90
44823;DHT22;51097;51.984;5.650;2022-12-18T06:58:31;-1.20;99.90
44823;DHT22;51097;51.984;5.650;2022-12-18T07:01:02;-1.20;99.90
44823;DHT22;51097;51.984;5.650;2022-12-18T07:03:27;-1.20;99.90
44823;DHT22;51097;51.984;5.650;2022-12-18T07:05:53;-1.10;99.90
44823;DHT22;51097;51.984;5.650;2022-12-18T07:08:19;-1.20;99.90
44823;DHT22;51097;51.984;5.650;2022-12-18T07:10:44;-1.20;99.90
44823;DHT22;51097;51.984;5.650;2022-12-18T07:13:10;-1.10;99.90
44823;DHT22;51097;51.984;5.650;2022-12-18T07:15:36;-1.10;99.90
44823;DHT22;51097;51.984;5.650;2022-12-18T07:18:01;-1.00;99.90
44823;DHT22;51097;51.984;5.650;2022-12-18T07:20:27;-1.10;99.90
44823;DHT22;51097;51.984;5.650;2022-12-18T07:22:52;-1.10;99.90
44823;DHT22;51097;51.984;5.650;2022-12-18T07:25:18;-1.20;99.90
44823;DHT22;51097;51.984;5.650;2022-12-18T07:27:44;-1.10;99.90
44823;DHT22;51097;51.984;5.650;2022-12-18T07:30:10;-1.20;99.90
44823;DHT22;51097;51.984;5.650;2022-12-18T07:32:35;-1.10;99.90
44823;DHT22;51097;51.984;5.650;2022-12-18T07:35:01;-1.10;99.90
44823;DHT22;51097;51.984;5.650;2022-12-18T07:37:26;-1.10;99.90
44823;DHT22;51097;51.984;5.650;2022-12-18T07:39:52;-1.10;99.90
44823;DHT22;51097;51.984;5.650;2022-12-18T07:42:17;-1.20;99.90
44823;DHT22;51097;51.984;5.650;2022-12-18T07:44:55;-1.20;99.90
44823;DHT22;51097;51.984;5.650;2022-12-18T07:47:21;-1.00;99.90
44823;DHT22;51097;51.984;5.650;2022-12-18T07:49:47;-0.90;99.90
44823;DHT22;51097;51.984;5.650;2022-12-18T07:52:12;-1.00;99.90
44823;DHT22;51097;51.984;5.650;2022-12-18T07:54:38;-1.00;99.90
44823;DHT22;51097;51.984;5.650;2022-12-18T07:57:04;-1.00;99.90
44823;DHT22;51097;51.984;5.650;2022-12-18T07:59:29;-1.00;99.90
44823;DHT22;51097;51.984;5.650;2022-12-18T08:01:55;-1.00;99.90
44823;DHT22;51097;51.984;5.650;2022-12-18T08:04:20;-1.00;99.90
44823;DHT22;51097;51.984;5.650;2022-12-18T08:06:46;-0.80;99.90
44823;DHT22;51097;51.984;5.650;2022-12-18T08:09:12;-0.80;99.90
44823;DHT22;51097;51.984;5.650;2022-12-18T08:11:37;-0.70;99.90
44823;DHT22;51097;51.984;5.650;2022-12-18T08:14:03;-0.60;99.90
44823;DHT22;51097;51.984;5.650;2022-12-18T08:16:28;-0.60;99.90
44823;DHT22;51097;51.984;5.650;2022-12-18T08:18:55;-0.70;99.90
44823;DHT22;51097;51.984;5.650;2022-12-18T08:21:26;-0.80;99.90
44823;DHT22;51097;51.984;5.650;2022-12-18T08:23:53;-0.90;99.90
44823;DHT22;51097;51.984;5.650;2022-12-18T08:26:20;-0.80;99.90
44823;DHT22;51097;51.984;5.650;2022-12-18T08:28:46;-0.70;99.90
44823;DHT22;51097;51.984;5.650;2022-12-18T08:31:12;-0.70;99.90
44823;DHT22;51097;51.984;5.650;2022-12-18T08:33:39;-0.60;99.90
44823;DHT22;51097;51.984;5.650;2022-12-18T08:36:05;-0.50;99.90
44823;DHT22;51097;51.984;5.650;2022-12-18T08:38:32;-0.50;99.90
44823;DHT22;51097;51.984;5.650;2022-12-18T08:41:02;-0.40;99.90
44823;DHT22;51097;51.984;5.650;2022-12-18T08:43:28;-0.30;99.90
44823;DHT22;51097;51.984;5.650;2022-12-18T08:46:12;-0.30;99.90
44823;DHT22;51097;51.984;5.650;2022-12-18T08:48:38;-0.30;99.90
44823;DHT22;51097;51.984;5.650;2022-12-18T08:51:04;-0.30;99.90
44823;DHT22;51097;51.984;5.650;2022-12-18T08:53:31;-0.20;99.90
44823;DHT22;51097;51.984;5.650;2022-12-18T08:55:57;0.00;99.90
44823;DHT22;51097;51.984;5.650;2022-12-18T08:58:22;-0.10;99.90
44823;DHT22;51097;51.984;5.650;2022-12-18T09:00:48;-0.10;99.90
44823;DHT22;51097;51.984;5.650;2022-12-18T09:03:18;0.00;99.90
44823;DHT22;51097;51.984;5.650;2022-12-18T09:05:45;0.00;99.90
44823;DHT22;51097;51.984;5.650;2022-12-18T09:08:11;0.00;99.90
44823;DHT22;51097;51.984;5.650;2022-12-18T09:10:45;0.00;99.90
44823;DHT22;51097;51.984;5.650;2022-12-18T09:13:11;0.10;99.90
44823;DHT22;51097;51.984;5.650;2022-12-18T09:15:45;0.10;99.90
44823;DHT22;51097;51.984;5.650;2022-12-18T09:18:12;0.10;99.90
44823;DHT22;51097;51.984;5.650;2022-12-18T09:20:38;0.20;99.90
44823;DHT22;51097;51.984;5.650;2022-12-18T09:23:04;0.20;99.90
44823;DHT22;51097;51.984;5.650;2022-12-18T09:25:31;0.20;99.90
44823;DHT22;51097;51.984;5.650;2022-12-18T09:28:05;0.40;99.90
44823;DHT22;51097;51.984;5.650;2022-12-18T09:30:31;0.30;99.90
44823;DHT22;51097;51.984;5.650;2022-12-18T09:32:58;0.40;99.90
44823;DHT22;51097;51.984;5.650;2022-12-18T09:35:24;0.50;99.90
44823;DHT22;51097;51.984;5.650;2022-12-18T09:37:49;0.60;99.90
44823;DHT22;51097;51.984;5.650;2022-12-18T09:40:21;0.70;99.90
44823;DHT22;51097;51.984;5.650;2022-12-18T09:42:52;0.80;99.90
44823;DHT22;51097;51.984;5.650;2022-12-18T09:45:19;0.90;99.90
44823;DHT22;51097;51.984;5.650;2022-12-18T09:47:45;1.00;99.90
44823;DHT22;51097;51.984;5.650;2022-12-18T09:50:28;1.10;99.90
44823;DHT22;51097;51.984;5.650;2022-12-18T09:52:57;1.10;99.90
44823;DHT22;51097;51.984;5.650;2022-12-18T09:57:52;1.20;99.90
44823;DHT22;51097;51.984;5.650;2022-12-18T10:00:22;1.20;99.90
44823;DHT22;51097;51.984;5.650;2022-12-18T10:02:50;1.30;99.90
44823;DHT22;51097;51.984;5.650;2022-12-18T10:05:20;1.30;99.90
44823;DHT22;51097;51.984;5.650;2022-12-18T10:08:14;1.30;99.90
44823;DHT22;51097;51.984;5.650;2022-12-18T10:10:50;1.30;99.90
44823;DHT22;51097;51.984;5.650;2022-12-18T10:13:42;1.30;99.90
44823;DHT22;51097;51.984;5.650;2022-12-18T10:16:16;1.40;99.90
44823;DHT22;51097;51.984;5.650;2022-12-18T10:21:31;1.50;99.90
44823;DHT22;51097;51.984;5.650;2022-12-18T10:24:23;1.50;99.90
44823;DHT22;51097;51.984;5.650;2022-12-18T10:26:52;1.70;99.90
44823;DHT22;51097;51.984;5.650;2022-12-18T10:29:21;1.70;99.90
44823;DHT22;51097;51.984;5.650;2022-12-18T10:31:47;1.80;99.90
44823;DHT22;51097;51.984;5.650;2022-12-18T10:34:13;1.80;99.90
44823;DHT22;51097;51.984;5.650;2022-12-18T10:36:39;1.70;99.90
44823;DHT22;51097;51.984;5.650;2022-12-18T10:39:19;1.80;99.90
44823;DHT22;51097;51.984;5.650;2022-12-18T10:41:45;1.90;99.90
44823;DHT22;51097;51.984;5.650;2022-12-18T10:44:22;2.00;99.90
44823;DHT22;51097;51.984;5.650;2022-12-18T10:46:50;2.00;99.90
44823;DHT22;51097;51.984;5.650;2022-12-18T10:49:27;1.90;99.90
44823;DHT22;51097;51.984;5.650;2022-12-18T10:52:17;2.00;99.90
44823;DHT22;51097;51.984;5.650;2022-12-18T10:55:01;2.10;99.90
44823;DHT22;51097;51.984;5.650;2022-12-18T10:57:37;2.10;99.90
44823;DHT22;51097;51.984;5.650;2022-12-18T11:00:30;2.10;99.90
44823;DHT22;51097;51.984;5.650;2022-12-18T11:02:56;2.10;99.90
44823;DHT22;51097;51.984;5.650;2022-12-18T11:05:32;2.20;99.90
44823;DHT22;51097;51.984;5.650;2022-12-18T11:07:59;2.20;99.90
44823;DHT22;51097;51.984;5.650;2022-12-18T11:10:35;2.20;99.90
44823;DHT22;51097;51.984;5.650;2022-12-18T11:13:22;2.20;99.90
44823;DHT22;51097;51.984;5.650;2022-12-18T11:15:49;2.30;99.90
44823;DHT22;51097;51.984;5.650;2022-12-18T11:18:29;2.30;99.90
44823;DHT22;51097;51.984;5.650;2022-12-18T11:21:15;2.30;99.90
44823;DHT22;51097;51.984;5.650;2022-12-18T11:23:59;2.30;99.90
44823;DHT22;51097;51.984;5.650;2022-12-18T11:26:34;2.40;99.90
44823;DHT22;51097;51.984;5.650;2022-12-18T11:29:09;2.50;99.90
44823;DHT22;51097;51.984;5.650;2022-12-18T11:31:35;2.60;99.90
44823;DHT22;51097;51.984;5.650;2022-12-18T11:36:46;2.70;99.90
44823;DHT22;51097;51.984;5.650;2022-12-18T11:39:21;2.70;99.90
44823;DHT22;51097;51.984;5.650;2022-12-18T11:50:22;3.20;99.90
44823;DHT22;51097;51.984;5.650;2022-12-18T11:52:49;3.30;99.90
44823;DHT22;51097;51.984;5.650;2022-12-18T12:00:31;3.20;99.90
44823;DHT22;51097;51.984;5.650;2022-12-18T12:14:01;3.20;99.90
44823;DHT22;51097;51.984;5.650;2022-12-18T12:16:53;3.30;99.90
44823;DHT22;51097;51.984;5.650;2022-12-18T12:19:54;3.30;99.90
44823;DHT22;51097;51.984;5.650;2022-12-18T12:28:26;3.40;99.90
44823;DHT22;51097;51.984;5.650;2022-12-18T12:33:53;3.60;99.90
44823;DHT22;51097;51.984;5.650;2022-12-18T12:39:21;3.60;99.90
44823;DHT22;51097;51.984;5.650;2022-12-18T12:41:48;3.60;99.90
44823;DHT22;51097;51.984;5.650;2022-12-18T12:44:37;3.70;99.90
44823;DHT22;51097;51.984;5.650;2022-12-18T12:47:20;3.60;99.90
44823;DHT22;51097;51.984;5.650;2022-12-18T12:49:47;3.50;99.90
44823;DHT22;51097;51.984;5.650;2022-12-18T12:52:37;3.50;99.90
44823;DHT22;51097;51.984;5.650;2022-12-18T12:55:07;3.50;99.90
44823;DHT22;51097;51.984;5.650;2022-12-18T12:57:40;3.60;99.90
44823;DHT22;51097;51.984;5.650;2022-12-18T13:07:56;3.80;99.90
44823;DHT22;51097;51.984;5.650;2022-12-18T13:10:26;3.80;99.90
44823;DHT22;51097;51.984;5.650;2022-12-18T13:12:59;3.80;99.90
44823;DHT22;51097;51.984;5.650;2022-12-18T13:15:33;3.90;99.90
44823;DHT22;51097;51.984;5.650;2022-12-18T13:25:50;4.00;99.90
44823;DHT22;51097;51.984;5.650;2022-12-18T13:28:20;3.90;99.90
44823;DHT22;51097;51.984;5.650;2022-12-18T13:30:50;3.80;99.90
44823;DHT22;51097;51.984;5.650;2022-12-18T13:48:33;3.90;99.90
44823;DHT22;51097;51.984;5.650;2022-12-18T13:51:02;4.10;99.90
44823;DHT22;51097;51.984;5.650;2022-12-18T13:53:43;4.00;99.90
44823;DHT22;51097;51.984;5.650;2022-12-18T13:56:16;4.00;99.90
44823;DHT22;51097;51.984;5.650;2022-12-18T13:58:41;3.90;99.90
44823;DHT22;51097;51.984;5.650;2022-12-18T14:01:22;3.90;99.90
44823;DHT22;51097;51.984;5.650;2022-12-18T14:03:48;4.00;99.90
44823;DHT22;51097;51.984;5.650;2022-12-18T14:06:14;4.00;99.90
44823;DHT22;51097;51.984;5.650;2022-12-18T14:08:41;3.90;99.90
44823;DHT22;51097;51.984;5.650;2022-12-18T14:11:07;3.90;99.90
44823;DHT22;51097;51.984;5.650;2022-12-18T14:13:42;3.90;99.90
44823;DHT22;51097;51.984;5.650;2022-12-18T14:16:13;3.80;99.90
44823;DHT22;51097;51.984;5.650;2022-12-18T14:18:52;3.80;99.90
44823;DHT22;51097;51.984;5.650;2022-12-18T14:21:22;3.90;99.90
44823;DHT22;51097;51.984;5.650;2022-12-18T14:23:49;3.80;99.90
44823;DHT22;51097;51.984;5.650;2022-12-18T14:26:29;3.80;99.90
44823;DHT22;51097;51.984;5.650;2022-12-18T14:28:57;3.80;99.90
44823;DHT22;51097;51.984;5.650;2022-12-18T14:31:25;3.80;99.90
44823;DHT22;51097;51.984;5.650;2022-12-18T14:33:52;3.70;99.90
44823;DHT22;51097;51.984;5.650;2022-12-18T14:36:20;3.80;99.90
44823;DHT22;51097;51.984;5.650;2022-12-18T14:38:57;3.80;99.90
44823;DHT22;51097;51.984;5.650;2022-12-18T14:41:23;3.80;99.90
44823;DHT22;51097;51.984;5.650;2022-12-18T14:43:51;3.80;99.90
44823;DHT22;51097;51.984;5.650;2022-12-18T14:46:30;3.70;99.90
44823;DHT22;51097;51.984;5.650;2022-12-18T14:49:05;3.80;99.90
44823;DHT22;51097;51.984;5.650;2022-12-18T14:51:54;3.80;99.90
44823;DHT22;51097;51.984;5.650;2022-12-18T14:54:20;3.70;99.90
44823;DHT22;51097;51.984;5.650;2022-12-18T14:56:49;3.80;99.90
44823;DHT22;51097;51.984;5.650;2022-12-18T14:59:20;3.80;99.90
44823;DHT22;51097;51.984;5.650;2022-12-18T15:01:56;3.80;99.90
44823;DHT22;51097;51.984;5.650;2022-12-18T15:04:37;3.80;99.90
44823;DHT22;51097;51.984;5.650;2022-12-18T15:09:36;3.80;99.90
44823;DHT22;51097;51.984;5.650;2022-12-18T15:12:02;3.90;99.90
44823;DHT22;51097;51.984;5.650;2022-12-18T15:14:34;3.80;99.90
44823;DHT22;51097;51.984;5.650;2022-12-18T15:17:19;3.90;99.90
44823;DHT22;51097;51.984;5.650;2022-12-18T15:19:45;3.90;99.90
44823;DHT22;51097;51.984;5.650;2022-12-18T15:24:43;3.90;99.90
44823;DHT22;51097;51.984;5.650;2022-12-18T15:27:31;4.00;99.90
44823;DHT22;51097;51.984;5.650;2022-12-18T15:30:21;3.90;99.90
44823;DHT22;51097;51.984;5.650;2022-12-18T15:32:47;3.90;99.90
44823;DHT22;51097;51.984;5.650;2022-12-18T15:35:21;3.90;99.90
44823;DHT22;51097;51.984;5.650;2022-12-18T15:37:48;3.90;99.90
44823;DHT22;51097;51.984;5.650;2022-12-18T15:40:19;3.80;99.90
44823;DHT22;51097;51.984;5.650;2022-12-18T15:42:46;3.90;99.90
44823;DHT22;51097;51.984;5.650;2022-12-18T15:45:31;3.90;99.90
44823;DHT22;51097;51.984;5.650;2022-12-18T15:47:56;3.80;99.90
44823;DHT22;51097;51.984;5.650;2022-12-18T15:50:22;3.80;99.90
44823;DHT22;51097;51.984;5.650;2022-12-18T15:52:49;3.80;99.90
44823;DHT22;51097;51.984;5.650;2022-12-18T15:55:19;3.90;99.90
44823;DHT22;51097;51.984;5.650;2022-12-18T15:58:08;3.90;99.90
44823;DHT22;51097;51.984;5.650;2022-12-18T16:00:36;3.90;99.90
44823;DHT22;51097;51.984;5.650;2022-12-18T16:03:02;3.80;99.90
44823;DHT22;51097;51.984;5.650;2022-12-18T16:05:28;3.90;99.90
44823;DHT22;51097;51.984;5.650;2022-12-18T16:07:54;3.80;99.90
44823;DHT22;51097;51.984;5.650;2022-12-18T16:10:21;3.80;99.90
44823;DHT22;51097;51.984;5.650;2022-12-18T16:12:46;3.80;99.90
44823;DHT22;51097;51.984;5.650;2022-12-18T16:15:14;3.80;99.90
44823;DHT22;51097;51.984;5.650;2022-12-18T16:17:42;3.80;99.90
44823;DHT22;51097;51.984;5.650;2022-12-18T16:20:19;3.80;99.90
44823;DHT22;51097;51.984;5.650;2022-12-18T16:22:46;3.80;99.90
44823;DHT22;51097;51.984;5.650;2022-12-18T16:25:20;3.80;99.90
44823;DHT22;51097;51.984;5.650;2022-12-18T16:27:48;3.80;99.90
44823;DHT22;51097;51.984;5.650;2022-12-18T16:30:19;3.70;99.90
44823;DHT22;51097;51.984;5.650;2022-12-18T16:32:45;3.70;99.90
44823;DHT22;51097;51.984;5.650;2022-12-18T16:35:13;3.70;99.90
44823;DHT22;51097;51.984;5.650;2022-12-18T16:37:39;3.60;99.90
44823;DHT22;51097;51.984;5.650;2022-12-18T16:40:07;3.70;99.90
44823;DHT22;51097;51.984;5.650;2022-12-18T16:42:37;3.70;99.90
44823;DHT22;51097;51.984;5.650;2022-12-18T16:45:05;3.70;99.90
44823;DHT22;51097;51.984;5.650;2022-12-18T16:47:31;3.70;99.90
44823;DHT22;51097;51.984;5.650;2022-12-18T16:49:56;3.70;99.90
44823;DHT22;51097;51.984;5.650;2022-12-18T16:52:22;3.80;99.90
44823;DHT22;51097;51.984;5.650;2022-12-18T16:54:47;3.80;99.90
44823;DHT22;51097;51.984;5.650;2022-12-18T16:57:16;3.70;99.90
44823;DHT22;51097;51.984;5.650;2022-12-18T16:59:42;3.70;99.90
44823;DHT22;51097;51.984;5.650;2022-12-18T17:02:19;3.60;99.90
44823;DHT22;51097;51.984;5.650;2022-12-18T17:04:45;3.70;99.90
44823;DHT22;51097;51.984;5.650;2022-12-18T17:07:12;3.70;99.90
44823;DHT22;51097;51.984;5.650;2022-12-18T17:09:38;3.70;99.90
44823;DHT22;51097;51.984;5.650;2022-12-18T17:12:04;3.60;99.90
44823;DHT22;51097;51.984;5.650;2022-12-18T17:14:30;3.70;99.90
44823;DHT22;51097;51.984;5.650;2022-12-18T17:16:56;3.60;99.90
44823;DHT22;51097;51.984;5.650;2022-12-18T17:19:23;3.60;99.90
44823;DHT22;51097;51.984;5.650;2022-12-18T17:21:49;3.80;99.90
44823;DHT22;51097;51.984;5.650;2022-12-18T17:24:15;3.70;99.90
44823;DHT22;51097;51.984;5.650;2022-12-18T17:26:41;3.80;99.90
44823;DHT22;51097;51.984;5.650;2022-12-18T17:29:07;3.80;99.90
44823;DHT22;51097;51.984;5.650;2022-12-18T17:31:33;3.70;99.90
44823;DHT22;51097;51.984;5.650;2022-12-18T17:34:01;3.60;99.90
44823;DHT22;51097;51.984;5.650;2022-12-18T17:36:27;3.60;99.90
44823;DHT22;51097;51.984;5.650;2022-12-18T17:38:57;3.60;99.90
44823;DHT22;51097;51.984;5.650;2022-12-18T17:41:23;3.60;99.90
44823;DHT22;51097;51.984;5.650;2022-12-18T17:43:54;3.60;99.90
44823;DHT22;51097;51.984;5.650;2022-12-18T17:46:20;3.70;99.90